sensor_id;sensor_type;location;lat;lon;timestamp;temperature;humidity
23114;DHT22;11726;50.122;8.832;2023-06-14T00:02:20;19.10;70.50
23114;DHT22;11726;50.122;8.832;2023-06-14T00:04:47;19.20;70.70
23114;DHT22;11726;50.122;8.832;2023-06-14T00:07:14;19.20;70.00
23114;DHT22;11726;50.122;8.832;2023-06-14T00:09:43;19.10;70.70
23114;DHT22;11726;50.122;8.832;2023-06-14T00:12:09;19.10;72.10
23114;DHT22;11726;50.122;8.832;2023-06-14T00:14:36;18.70;73.50
23114;DHT22;11726;50.122;8.832;2023-06-14T00:17:03;18.60;75.20
23114;DHT22;11726;50.122;8.832;2023-06-14T00:19:29;18.70;76.20
23114;DHT22;11726;50.122;8.832;2023-06-14T00:21:59;18.60;76.70
23114;DHT22;11726;50.122;8.832;2023-06-14T00:24:26;18.60;77.10
23114;DHT22;11726;50.122;8.832;2023-06-14T00:26:52;18.60;77.60
23114;DHT22;11726;50.122;8.832;2023-06-14T00:29:19;18.50;77.90
23114;DHT22;11726;50.122;8.832;2023-06-14T00:31:45;18.50;79.30
23114;DHT22;11726;50.122;8.832;2023-06-14T00:34:12;18.50;79.80
23114;DHT22;11726;50.122;8.832;2023-06-14T00:36:38;18.40;80.70
23114;DHT22;11726;50.122;8.832;2023-06-14T00:39:05;18.40;80.20
23114;DHT22;11726;50.122;8.832;2023-06-14T00:41:32;18.30;80.20
23114;DHT22;11726;50.122;8.832;2023-06-14T00:43:58;18.20;80.20
23114;DHT22;11726;50.122;8.832;2023-06-14T00:46:26;18.30;81.00
23114;DHT22;11726;50.122;8.832;2023-06-14T00:48:53;18.30;81.50
23114;DHT22;11726;50.122;8.832;2023-06-14T00:51:20;18.30;80.80
23114;DHT22;11726;50.122;8.832;2023-06-14T00:53:46;18.20;81.00
23114;DHT22;11726;50.122;8.832;2023-06-14T00:56:14;18.20;82.80
23114;DHT22;11726;50.122;8.832;2023-06-14T00:58:41;18.20;82.70
23114;DHT22;11726;50.122;8.832;2023-06-14T01:01:08;18.10;83.80
23114;DHT22;11726;50.122;8.832;2023-06-14T01:03:34;17.90;83.90
23114;DHT22;11726;50.122;8.832;2023-06-14T01:06:05;17.90;84.40
23114;DHT22;11726;50.122;8.832;2023-06-14T01:08:47;17.90;84.80
23114;DHT22;11726;50.122;8.832;2023-06-14T01:11:16;18.10;85.60
23114;DHT22;11726;50.122;8.832;2023-06-14T01:13:45;18.00;84.90
23114;DHT22;11726;50.122;8.832;2023-06-14T01:16:12;18.10;86.40
23114;DHT22;11726;50.122;8.832;2023-06-14T01:18:40;18.10;85.20
23114;DHT22;11726;50.122;8.832;2023-06-14T01:21:19;18.00;85.10
23114;DHT22;11726;50.122;8.832;2023-06-14T01:23:46;17.80;86.60
23114;DHT22;11726;50.122;8.832;2023-06-14T01:26:19;17.70;86.50
23114;DHT22;11726;50.122;8.832;2023-06-14T01:28:47;17.70;87.30
23114;DHT22;11726;50.122;8.832;2023-06-14T01:31:18;17.70;87.80
23114;DHT22;11726;50.122;8.832;2023-06-14T01:33:46;17.70;88.10
23114;DHT22;11726;50.122;8.832;2023-06-14T01:36:12;17.70;88.30
23114;DHT22;11726;50.122;8.832;2023-06-14T01:38:39;17.70;88.30
23114;DHT22;11726;50.122;8.832;2023-06-14T01:41:06;17.70;89.50
23114;DHT22;11726;50.122;8.832;2023-06-14T01:43:33;17.80;88.70
23114;DHT22;11726;50.122;8.832;2023-06-14T01:46:00;17.80;87.90
23114;DHT22;11726;50.122;8.832;2023-06-14T01:48:27;17.70;89.70
23114;DHT22;11726;50.122;8.832;2023-06-14T01:50:53;17.70;90.30
23114;DHT22;11726;50.122;8.832;2023-06-14T01:53:20;17.60;89.90
23114;DHT22;11726;50.122;8.832;2023-06-14T01:55:47;17.50;90.10
23114;DHT22;11726;50.122;8.832;2023-06-14T01:58:14;17.50;91.00
23114;DHT22;11726;50.122;8.832;2023-06-14T02:00:43;17.50;91.70
23114;DHT22;11726;50.122;8.832;2023-06-14T02:03:10;17.60;91.70
23114;DHT22;11726;50.122;8.832;2023-06-14T02:05:38;17.60;91.50
23114;DHT22;11726;50.122;8.832;2023-06-14T02:08:06;17.40;91.40
23114;DHT22;11726;50.122;8.832;2023-06-14T02:10:33;17.40;91.70
23114;DHT22;11726;50.122;8.832;2023-06-14T02:13:02;17.40;91.70
23114;DHT22;11726;50.122;8.832;2023-06-14T02:15:28;17.30;92.20
23114;DHT22;11726;50.122;8.832;2023-06-14T02:18:00;17.40;93.00
23114;DHT22;11726;50.122;8.832;2023-06-14T02:20:27;17.40;94.30
23114;DHT22;11726;50.122;8.832;2023-06-14T02:22:54;17.40;93.30
23114;DHT22;11726;50.122;8.832;2023-06-14T02:25:21;17.30;93.70
23114;DHT22;11726;50.122;8.832;2023-06-14T02:27:47;17.30;94.30
23114;DHT22;11726;50.122;8.832;2023-06-14T02:30:14;17.30;95.90
23114;DHT22;11726;50.122;8.832;2023-06-14T02:32:42;17.20;95.80
23114;DHT22;11726;50.122;8.832;2023-06-14T02:35:09;17.30;96.70
23114;DHT22;11726;50.122;8.832;2023-06-14T02:37:36;17.30;95.10
23114;DHT22;11726;50.122;8.832;2023-06-14T02:40:03;17.20;96.60
23114;DHT22;11726;50.122;8.832;2023-06-14T02:42:30;17.00;96.00
23114;DHT22;11726;50.122;8.832;2023-06-14T02:44:56;17.00;96.30
23114;DHT22;11726;50.122;8.832;2023-06-14T02:47:23;17.00;95.60
23114;DHT22;11726;50.122;8.832;2023-06-14T02:49:50;17.00;95.40
23114;DHT22;11726;50.122;8.832;2023-06-14T02:52:17;16.90;94.90
23114;DHT22;11726;50.122;8.832;2023-06-14T02:54:44;16.80;95.30
23114;DHT22;11726;50.122;8.832;2023-06-14T02:57:10;16.90;95.90
23114;DHT22;11726;50.122;8.832;2023-06-14T02:59:37;16.90;95.60
23114;DHT22;11726;50.122;8.832;2023-06-14T03:02:04;16.80;95.90
23114;DHT22;11726;50.122;8.832;2023-06-14T03:04:31;16.70;96.20
23114;DHT22;11726;50.122;8.832;2023-06-14T03:07:03;16.70;96.20
23114;DHT22;11726;50.122;8.832;2023-06-14T03:09:38;16.60;97.30
23114;DHT22;11726;50.122;8.832;2023-06-14T03:12:05;16.70;97.10
23114;DHT22;11726;50.122;8.832;2023-06-14T03:14:36;16.70;97.00
23114;DHT22;11726;50.122;8.832;2023-06-14T03:17:03;16.60;97.10
23114;DHT22;11726;50.122;8.832;2023-06-14T03:19:31;16.40;97.80
23114;DHT22;11726;50.122;8.832;2023-06-14T03:21:58;16.50;97.70
23114;DHT22;11726;50.122;8.832;2023-06-14T03:24:25;16.40;97.70
23114;DHT22;11726;50.122;8.832;2023-06-14T03:26:54;16.60;97.90
23114;DHT22;11726;50.122;8.832;2023-06-14T03:29:20;16.60;97.60
23114;DHT22;11726;50.122;8.832;2023-06-14T03:32:00;16.50;97.90
23114;DHT22;11726;50.122;8.832;2023-06-14T03:34:27;16.50;98.30
23114;DHT22;11726;50.122;8.832;2023-06-14T03:36:53;16.50;98.30
23114;DHT22;11726;50.122;8.832;2023-06-14T03:39:20;16.60;98.10
23114;DHT22;11726;50.122;8.832;2023-06-14T03:41:47;16.70;98.30
23114;DHT22;11726;50.122;8.832;2023-06-14T03:44:17;16.50;98.50
23114;DHT22;11726;50.122;8.832;2023-06-14T03:46:45;16.60;98.30
23114;DHT22;11726;50.122;8.832;2023-06-14T03:49:12;16.60;97.90
23114;DHT22;11726;50.122;8.832;2023-06-14T03:51:38;16.60;99.00
23114;DHT22;11726;50.122;8.832;2023-06-14T03:54:06;16.60;98.50
23114;DHT22;11726;50.122;8.832;2023-06-14T03:56:53;16.60;98.50
23114;DHT22;11726;50.122;8.832;2023-06-14T03:59:19;16.60;99.30
23114;DHT22;11726;50.122;8.832;2023-06-14T04:01:46;16.80;99.80
23114;DHT22;11726;50.122;8.832;2023-06-14T04:04:13;16.80;99.90
23114;DHT22;11726;50.122;8.832;2023-06-14T04:06:39;16.70;99.60
23114;DHT22;11726;50.122;8.832;2023-06-14T04:09:07;16.70;99.40
23114;DHT22;11726;50.122;8.832;2023-06-14T04:11:34;16.60;99.90
23114;DHT22;11726;50.122;8.832;2023-06-14T04:14:01;16.60;99.90
23114;DHT22;11726;50.122;8.832;2023-06-14T04:16:28;16.50;99.90
23114;DHT22;11726;50.122;8.832;2023-06-14T04:18:54;16.80;99.90
23114;DHT22;11726;50.122;8.832;2023-06-14T04:21:21;16.90;99.10
23114;DHT22;11726;50.122;8.832;2023-06-14T04:23:49;17.00;99.70
23114;DHT22;11726;50.122;8.832;2023-06-14T04:26:19;16.90;99.10
23114;DHT22;11726;50.122;8.832;2023-06-14T04:28:47;17.10;98.90
23114;DHT22;11726;50.122;8.832;2023-06-14T04:31:13;16.90;99.40
23114;DHT22;11726;50.122;8.832;2023-06-14T04:33:40;16.80;99.80
23114;DHT22;11726;50.122;8.832;2023-06-14T04:36:11;16.80;99.90
23114;DHT22;11726;50.122;8.832;2023-06-14T04:38:44;17.00;99.90
23114;DHT22;11726;50.122;8.832;2023-06-14T04:41:11;17.10;99.90
23114;DHT22;11726;50.122;8.832;2023-06-14T04:43:38;17.10;99.90
23114;DHT22;11726;50.122;8.832;2023-06-14T04:46:05;17.10;99.90
23114;DHT22;11726;50.122;8.832;2023-06-14T04:48:38;17.10;99.90
23114;DHT22;11726;50.122;8.832;2023-06-14T04:51:07;17.00;99.90
23114;DHT22;11726;50.122;8.832;2023-06-14T04:53:34;17.00;99.90
23114;DHT22;11726;50.122;8.832;2023-06-14T04:56:01;17.00;99.90
23114;DHT22;11726;50.122;8.832;2023-06-14T04:58:28;17.10;99.90
23114;DHT22;11726;50.122;8.832;2023-06-14T05:00:55;17.10;99.90
23114;DHT22;11726;50.122;8.832;2023-06-14T05:03:22;17.10;99.60
23114;DHT22;11726;50.122;8.832;2023-06-14T05:05:50;17.20;99.90
23114;DHT22;11726;50.122;8.832;2023-06-14T05:08:17;17.10;99.90
23114;DHT22;11726;50.122;8.832;2023-06-14T05:10:43;17.10;99.90
23114;DHT22;11726;50.122;8.832;2023-06-14T05:13:10;17.20;99.90
23114;DHT22;11726;50.122;8.832;2023-06-14T05:15:37;17.20;99.90
23114;DHT22;11726;50.122;8.832;2023-06-14T05:18:04;17.20;99.90
23114;DHT22;11726;50.122;8.832;2023-06-14T05:20:30;17.30;99.90
23114;DHT22;11726;50.122;8.832;2023-06-14T05:22:57;17.30;99.90
23114;DHT22;11726;50.122;8.832;2023-06-14T05:25:24;17.40;99.90
23114;DHT22;11726;50.122;8.832;2023-06-14T05:27:51;17.40;99.90
23114;DHT22;11726;50.122;8.832;2023-06-14T05:30:17;17.40;99.90
23114;DHT22;11726;50.122;8.832;2023-06-14T05:32:44;17.50;99.90
23114;DHT22;11726;50.122;8.832;2023-06-14T05:35:11;17.60;99.20
23114;DHT22;11726;50.122;8.832;2023-06-14T05:37:38;17.70;99.80
23114;DHT22;11726;50.122;8.832;2023-06-14T05:40:05;17.70;99.20
23114;DHT22;11726;50.122;8.832;2023-06-14T05:42:32;17.70;99.40
23114;DHT22;11726;50.122;8.832;2023-06-14T05:44:59;17.60;99.30
23114;DHT22;11726;50.122;8.832;2023-06-14T05:47:26;17.70;99.90
23114;DHT22;11726;50.122;8.832;2023-06-14T05:49:54;17.80;99.70
23114;DHT22;11726;50.122;8.832;2023-06-14T05:52:21;17.80;99.50
23114;DHT22;11726;50.122;8.832;2023-06-14T05:54:48;18.00;99.20
23114;DHT22;11726;50.122;8.832;2023-06-14T05:57:14;18.00;98.40
23114;DHT22;11726;50.122;8.832;2023-06-14T05:59:41;18.10;98.60
23114;DHT22;11726;50.122;8.832;2023-06-14T06:02:07;18.10;97.80
23114;DHT22;11726;50.122;8.832;2023-06-14T06:04:34;18.00;98.40
23114;DHT22;11726;50.122;8.832;2023-06-14T06:07:01;18.10;99.00
23114;DHT22;11726;50.122;8.832;2023-06-14T06:09:29;18.20;98.90
23114;DHT22;11726;50.122;8.832;2023-06-14T06:11:55;18.20;99.10
23114;DHT22;11726;50.122;8.832;2023-06-14T06:14:22;18.30;99.50
23114;DHT22;11726;50.122;8.832;2023-06-14T06:16:48;18.40;98.80
23114;DHT22;11726;50.122;8.832;2023-06-14T06:19:15;18.50;98.70
23114;DHT22;11726;50.122;8.832;2023-06-14T06:21:42;18.70;99.00
23114;DHT22;11726;50.122;8.832;2023-06-14T06:24:08;18.80;97.50
23114;DHT22;11726;50.122;8.832;2023-06-14T06:26:35;18.80;97.10
23114;DHT22;11726;50.122;8.832;2023-06-14T06:29:02;18.80;97.10
23114;DHT22;11726;50.122;8.832;2023-06-14T06:31:29;19.00;97.10
23114;DHT22;11726;50.122;8.832;2023-06-14T06:33:55;19.10;95.20
23114;DHT22;11726;50.122;8.832;2023-06-14T06:36:22;19.20;94.10
23114;DHT22;11726;50.122;8.832;2023-06-14T06:38:49;19.20;93.10
23114;DHT22;11726;50.122;8.832;2023-06-14T06:41:15;19.20;93.40
23114;DHT22;11726;50.122;8.832;2023-06-14T06:43:42;19.30;92.70
23114;DHT22;11726;50.122;8.832;2023-06-14T06:46:09;19.40;92.20
23114;DHT22;11726;50.122;8.832;2023-06-14T06:48:36;19.40;92.60
23114;DHT22;11726;50.122;8.832;2023-06-14T06:51:02;19.50;92.20
23114;DHT22;11726;50.122;8.832;2023-06-14T06:53:29;19.70;91.80
23114;DHT22;11726;50.122;8.832;2023-06-14T06:56:08;19.70;92.00
23114;DHT22;11726;50.122;8.832;2023-06-14T06:58:35;19.90;91.30
23114;DHT22;11726;50.122;8.832;2023-06-14T07:01:01;19.90;91.20
23114;DHT22;11726;50.122;8.832;2023-06-14T07:03:28;19.90;90.80
23114;DHT22;11726;50.122;8.832;2023-06-14T07:05:54;19.90;91.00
23114;DHT22;11726;50.122;8.832;2023-06-14T07:08:21;20.00;90.50
23114;DHT22;11726;50.122;8.832;2023-06-14T07:10:47;20.20;91.10
23114;DHT22;11726;50.122;8.832;2023-06-14T07:13:14;20.30;90.20
23114;DHT22;11726;50.122;8.832;2023-06-14T07:15:41;20.20;89.70
23114;DHT22;11726;50.122;8.832;2023-06-14T07:18:07;20.00;89.00
23114;DHT22;11726;50.122;8.832;2023-06-14T07:20:35;20.20;90.10
23114;DHT22;11726;50.122;8.832;2023-06-14T07:23:04;20.40;89.90
23114;DHT22;11726;50.122;8.832;2023-06-14T07:25:31;20.50;88.30
23114;DHT22;11726;50.122;8.832;2023-06-14T07:27:58;20.60;88.40
23114;DHT22;11726;50.122;8.832;2023-06-14T07:30:25;20.70;87.50
23114;DHT22;11726;50.122;8.832;2023-06-14T07:32:53;20.80;87.10
23114;DHT22;11726;50.122;8.832;2023-06-14T07:35:21;20.70;86.70
23114;DHT22;11726;50.122;8.832;2023-06-14T07:37:47;20.80;86.60
23114;DHT22;11726;50.122;8.832;2023-06-14T07:40:14;20.90;86.80
23114;DHT22;11726;50.122;8.832;2023-06-14T07:42:40;21.20;85.40
23114;DHT22;11726;50.122;8.832;2023-06-14T07:45:07;21.20;85.50
23114;DHT22;11726;50.122;8.832;2023-06-14T07:47:34;21.30;85.60
23114;DHT22;11726;50.122;8.832;2023-06-14T07:50:01;21.30;86.10
23114;DHT22;11726;50.122;8.832;2023-06-14T07:52:27;21.20;85.10
23114;DHT22;11726;50.122;8.832;2023-06-14T07:54:54;21.20;86.10
23114;DHT22;11726;50.122;8.832;2023-06-14T07:57:21;21.50;87.30
23114;DHT22;11726;50.122;8.832;2023-06-14T07:59:48;21.50;85.50
23114;DHT22;11726;50.122;8.832;2023-06-14T08:02:14;21.40;85.50
23114;DHT22;11726;50.122;8.832;2023-06-14T08:04:41;21.50;85.20
23114;DHT22;11726;50.122;8.832;2023-06-14T08:07:08;21.50;85.80
23114;DHT22;11726;50.122;8.832;2023-06-14T08:09:35;21.70;84.70
23114;DHT22;11726;50.122;8.832;2023-06-14T08:12:07;21.70;83.50
23114;DHT22;11726;50.122;8.832;2023-06-14T08:14:36;21.60;83.40
23114;DHT22;11726;50.122;8.832;2023-06-14T08:17:02;21.30;84.30
23114;DHT22;11726;50.122;8.832;2023-06-14T08:19:29;21.20;82.50
23114;DHT22;11726;50.122;8.832;2023-06-14T08:21:56;21.40;84.30
23114;DHT22;11726;50.122;8.832;2023-06-14T08:24:22;21.80;84.50
23114;DHT22;11726;50.122;8.832;2023-06-14T08:26:53;21.80;83.10
23114;DHT22;11726;50.122;8.832;2023-06-14T08:29:20;21.70;83.10
23114;DHT22;11726;50.122;8.832;2023-06-14T08:31:47;21.70;82.70
23114;DHT22;11726;50.122;8.832;2023-06-14T08:34:14;21.60;81.00
23114;DHT22;11726;50.122;8.832;2023-06-14T08:36:40;21.60;83.50
23114;DHT22;11726;50.122;8.832;2023-06-14T08:39:07;22.00;82.40
23114;DHT22;11726;50.122;8.832;2023-06-14T08:41:35;21.90;82.00
23114;DHT22;11726;50.122;8.832;2023-06-14T08:44:01;22.10;83.30
23114;DHT22;11726;50.122;8.832;2023-06-14T08:46:28;21.80;82.10
23114;DHT22;11726;50.122;8.832;2023-06-14T08:48:56;21.60;81.90
23114;DHT22;11726;50.122;8.832;2023-06-14T08:51:25;21.70;83.40
23114;DHT22;11726;50.122;8.832;2023-06-14T08:53:53;21.60;82.00
23114;DHT22;11726;50.122;8.832;2023-06-14T08:56:27;21.70;81.00
23114;DHT22;11726;50.122;8.832;2023-06-14T08:58:55;21.80;81.80
23114;DHT22;11726;50.122;8.832;2023-06-14T09:01:23;22.30;82.00
23114;DHT22;11726;50.122;8.832;2023-06-14T09:03:50;22.20;79.80
23114;DHT22;11726;50.122;8.832;2023-06-14T09:06:17;22.20;79.60
23114;DHT22;11726;50.122;8.832;2023-06-14T09:08:46;22.30;80.50
23114;DHT22;11726;50.122;8.832;2023-06-14T09:11:14;22.20;78.90
23114;DHT22;11726;50.122;8.832;2023-06-14T09:13:41;22.50;78.70
23114;DHT22;11726;50.122;8.832;2023-06-14T09:16:08;22.70;77.40
23114;DHT22;11726;50.122;8.832;2023-06-14T09:18:36;22.90;76.90
23114;DHT22;11726;50.122;8.832;2023-06-14T09:21:03;23.10;73.60
23114;DHT22;11726;50.122;8.832;2023-06-14T09:23:29;23.00;74.10
23114;DHT22;11726;50.122;8.832;2023-06-14T09:25:59;22.60;73.50
23114;DHT22;11726;50.122;8.832;2023-06-14T09:28:26;22.60;76.40
23114;DHT22;11726;50.122;8.832;2023-06-14T09:30:53;23.00;75.00
23114;DHT22;11726;50.122;8.832;2023-06-14T09:33:21;23.10;75.00
23114;DHT22;11726;50.122;8.832;2023-06-14T09:35:50;23.10;72.50
23114;DHT22;11726;50.122;8.832;2023-06-14T09:38:17;23.00;72.30
23114;DHT22;11726;50.122;8.832;2023-06-14T09:40:43;23.00;73.60
23114;DHT22;11726;50.122;8.832;2023-06-14T09:43:10;23.00;73.10
23114;DHT22;11726;50.122;8.832;2023-06-14T09:45:40;23.00;73.70
23114;DHT22;11726;50.122;8.832;2023-06-14T09:48:07;23.10;73.00
23114;DHT22;11726;50.122;8.832;2023-06-14T09:50:34;23.60;72.30
23114;DHT22;11726;50.122;8.832;2023-06-14T09:53:07;23.70;70.70
23114;DHT22;11726;50.122;8.832;2023-06-14T09:55:36;23.90;69.70
23114;DHT22;11726;50.122;8.832;2023-06-14T09:58:04;23.50;69.80
23114;DHT22;11726;50.122;8.832;2023-06-14T10:00:33;23.30;68.80
23114;DHT22;11726;50.122;8.832;2023-06-14T10:03:03;23.20;69.60
23114;DHT22;11726;50.122;8.832;2023-06-14T10:05:32;23.30;70.20
23114;DHT22;11726;50.122;8.832;2023-06-14T10:08:00;23.30;68.40
23114;DHT22;11726;50.122;8.832;2023-06-14T10:10:30;23.30;68.90
23114;DHT22;11726;50.122;8.832;2023-06-14T10:12:57;23.10;68.20
23114;DHT22;11726;50.122;8.832;2023-06-14T10:15:28;23.00;71.40
23114;DHT22;11726;50.122;8.832;2023-06-14T10:23:20;24.00;70.90
23114;DHT22;11726;50.122;8.832;2023-06-14T10:25:53;23.90;69.20
23114;DHT22;11726;50.122;8.832;2023-06-14T10:28:21;23.40;67.20
23114;DHT22;11726;50.122;8.832;2023-06-14T10:31:03;23.00;68.50
23114;DHT22;11726;50.122;8.832;2023-06-14T10:33:31;23.00;70.50
23114;DHT22;11726;50.122;8.832;2023-06-14T10:36:11;22.70;70.20
23114;DHT22;11726;50.122;8.832;2023-06-14T10:39:10;22.90;70.80
23114;DHT22;11726;50.122;8.832;2023-06-14T10:41:38;23.00;69.90
23114;DHT22;11726;50.122;8.832;2023-06-14T10:44:30;23.60;69.20
23114;DHT22;11726;50.122;8.832;2023-06-14T10:47:00;24.00;67.50
23114;DHT22;11726;50.122;8.832;2023-06-14T10:52:05;24.40;66.70
23114;DHT22;11726;50.122;8.832;2023-06-14T10:54:33;24.10;67.00
23114;DHT22;11726;50.122;8.832;2023-06-14T10:56:59;23.70;66.80
23114;DHT22;11726;50.122;8.832;2023-06-14T10:59:26;23.70;67.30
23114;DHT22;11726;50.122;8.832;2023-06-14T11:04:20;23.90;66.00
23114;DHT22;11726;50.122;8.832;2023-06-14T11:06:47;23.80;66.20
23114;DHT22;11726;50.122;8.832;2023-06-14T11:11:41;23.50;64.70
23114;DHT22;11726;50.122;8.832;2023-06-14T11:14:08;23.30;64.50
23114;DHT22;11726;50.122;8.832;2023-06-14T11:16:36;23.30;65.20
23114;DHT22;11726;50.122;8.832;2023-06-14T11:19:02;23.20;64.60
23114;DHT22;11726;50.122;8.832;2023-06-14T11:21:32;23.30;66.40
23114;DHT22;11726;50.122;8.832;2023-06-14T11:23:59;23.30;64.50
23114;DHT22;11726;50.122;8.832;2023-06-14T11:26:30;23.50;65.80
23114;DHT22;11726;50.122;8.832;2023-06-14T11:28:58;23.70;65.70
23114;DHT22;11726;50.122;8.832;2023-06-14T11:31:25;23.80;64.50
23114;DHT22;11726;50.122;8.832;2023-06-14T11:33:53;23.80;61.50
23114;DHT22;11726;50.122;8.832;2023-06-14T11:36:20;23.90;62.70
23114;DHT22;11726;50.122;8.832;2023-06-14T11:38:46;24.40;63.00
23114;DHT22;11726;50.122;8.832;2023-06-14T11:41:13;24.80;62.20
23114;DHT22;11726;50.122;8.832;2023-06-14T11:43:40;24.60;63.40
23114;DHT22;11726;50.122;8.832;2023-06-14T11:46:13;24.50;63.60
23114;DHT22;11726;50.122;8.832;2023-06-14T11:48:41;24.30;62.30
23114;DHT22;11726;50.122;8.832;2023-06-14T11:51:08;24.30;63.60
23114;DHT22;11726;50.122;8.832;2023-06-14T11:53:34;24.70;63.50
23114;DHT22;11726;50.122;8.832;2023-06-14T11:56:01;24.60;61.30
23114;DHT22;11726;50.122;8.832;2023-06-14T11:58:29;24.40;62.70
23114;DHT22;11726;50.122;8.832;2023-06-14T12:00:55;24.30;64.30
23114;DHT22;11726;50.122;8.832;2023-06-14T12:03:25;24.40;63.00
23114;DHT22;11726;50.122;8.832;2023-06-14T12:06:10;24.30;62.50
23114;DHT22;11726;50.122;8.832;2023-06-14T12:08:38;24.00;61.30
23114;DHT22;11726;50.122;8.832;2023-06-14T12:11:06;24.00;61.90
23114;DHT22;11726;50.122;8.832;2023-06-14T12:13:34;24.40;60.90
23114;DHT22;11726;50.122;8.832;2023-06-14T12:16:02;25.10;62.10
23114;DHT22;11726;50.122;8.832;2023-06-14T12:18:32;25.40;60.10
23114;DHT22;11726;50.122;8.832;2023-06-14T12:21:01;25.10;57.40
23114;DHT22;11726;50.122;8.832;2023-06-14T12:23:39;24.90;56.60
23114;DHT22;11726;50.122;8.832;2023-06-14T12:26:06;25.10;56.40
23114;DHT22;11726;50.122;8.832;2023-06-14T12:28:35;25.70;57.00
23114;DHT22;11726;50.122;8.832;2023-06-14T12:31:02;26.10;55.30
23114;DHT22;11726;50.122;8.832;2023-06-14T12:33:29;25.90;56.20
23114;DHT22;11726;50.122;8.832;2023-06-14T12:35:56;25.70;54.90
23114;DHT22;11726;50.122;8.832;2023-06-14T12:38:24;25.50;56.20
23114;DHT22;11726;50.122;8.832;2023-06-14T12:40:50;25.10;56.70
23114;DHT22;11726;50.122;8.832;2023-06-14T12:43:17;24.70;57.70
23114;DHT22;11726;50.122;8.832;2023-06-14T12:45:46;24.50;58.30
23114;DHT22;11726;50.122;8.832;2023-06-14T12:48:12;24.20;58.50
23114;DHT22;11726;50.122;8.832;2023-06-14T12:50:39;24.30;58.80
23114;DHT22;11726;50.122;8.832;2023-06-14T12:53:05;24.70;59.80
23114;DHT22;11726;50.122;8.832;2023-06-14T12:55:32;25.20;59.00
23114;DHT22;11726;50.122;8.832;2023-06-14T12:57:59;25.20;57.20
23114;DHT22;11726;50.122;8.832;2023-06-14T13:00:26;25.40;58.30
23114;DHT22;11726;50.122;8.832;2023-06-14T13:02:52;26.10;57.10
23114;DHT22;11726;50.122;8.832;2023-06-14T13:05:19;26.40;56.20
23114;DHT22;11726;50.122;8.832;2023-06-14T13:07:46;26.80;55.40
23114;DHT22;11726;50.122;8.832;2023-06-14T13:10:13;27.40;54.70
23114;DHT22;11726;50.122;8.832;2023-06-14T13:12:40;27.50;53.80
23114;DHT22;11726;50.122;8.832;2023-06-14T13:15:07;27.70;52.00
23114;DHT22;11726;50.122;8.832;2023-06-14T13:17:34;28.00;52.10
23114;DHT22;11726;50.122;8.832;2023-06-14T13:20:05;27.90;51.80
23114;DHT22;11726;50.122;8.832;2023-06-14T13:22:32;28.50;50.60
23114;DHT22;11726;50.122;8.832;2023-06-14T13:24:58;28.40;49.70
23114;DHT22;11726;50.122;8.832;2023-06-14T13:27:26;28.60;50.90
23114;DHT22;11726;50.122;8.832;2023-06-14T13:29:53;28.30;50.00
23114;DHT22;11726;50.122;8.832;2023-06-14T13:32:23;27.40;51.60
23114;DHT22;11726;50.122;8.832;2023-06-14T13:34:50;26.80;52.00
23114;DHT22;11726;50.122;8.832;2023-06-14T13:37:17;26.20;54.10
23114;DHT22;11726;50.122;8.832;2023-06-14T13:39:43;26.50;54.10
23114;DHT22;11726;50.122;8.832;2023-06-14T13:42:10;27.30;52.90
23114;DHT22;11726;50.122;8.832;2023-06-14T13:44:37;28.10;52.90
23114;DHT22;11726;50.122;8.832;2023-06-14T13:47:21;28.10;49.90
23114;DHT22;11726;50.122;8.832;2023-06-14T13:50:05;27.90;50.20
23114;DHT22;11726;50.122;8.832;2023-06-14T13:52:32;28.10;49.40
23114;DHT22;11726;50.122;8.832;2023-06-14T13:55:17;28.30;49.30
23114;DHT22;11726;50.122;8.832;2023-06-14T13:57:43;28.90;50.40
23114;DHT22;11726;50.122;8.832;2023-06-14T14:00:29;28.20;49.30
23114;DHT22;11726;50.122;8.832;2023-06-14T14:02:56;27.50;50.60
23114;DHT22;11726;50.122;8.832;2023-06-14T14:05:23;26.90;51.00
23114;DHT22;11726;50.122;8.832;2023-06-14T14:08:12;26.30;51.60
23114;DHT22;11726;50.122;8.832;2023-06-14T14:10:56;25.80;53.00
23114;DHT22;11726;50.122;8.832;2023-06-14T14:13:40;25.50;53.40
23114;DHT22;11726;50.122;8.832;2023-06-14T14:16:08;25.50;53.50
23114;DHT22;11726;50.122;8.832;2023-06-14T14:18:36;26.60;53.00
23114;DHT22;11726;50.122;8.832;2023-06-14T14:21:04;27.00;51.80
23114;DHT22;11726;50.122;8.832;2023-06-14T14:23:48;26.70;51.80
23114;DHT22;11726;50.122;8.832;2023-06-14T14:26:33;26.30;51.00
23114;DHT22;11726;50.122;8.832;2023-06-14T14:29:17;26.60;52.40
23114;DHT22;11726;50.122;8.832;2023-06-14T14:31:44;27.20;52.70
23114;DHT22;11726;50.122;8.832;2023-06-14T14:34:11;26.90;50.50
23114;DHT22;11726;50.122;8.832;2023-06-14T14:36:37;26.70;52.80
23114;DHT22;11726;50.122;8.832;2023-06-14T14:39:08;26.30;52.90
23114;DHT22;11726;50.122;8.832;2023-06-14T14:41:34;25.90;52.00
23114;DHT22;11726;50.122;8.832;2023-06-14T14:44:01;25.60;52.10
23114;DHT22;11726;50.122;8.832;2023-06-14T14:46:28;25.60;53.70
23114;DHT22;11726;50.122;8.832;2023-06-14T14:48:55;26.40;52.60
23114;DHT22;11726;50.122;8.832;2023-06-14T14:51:22;27.10;51.00
23114;DHT22;11726;50.122;8.832;2023-06-14T14:53:48;28.00;51.30
23114;DHT22;11726;50.122;8.832;2023-06-14T14:56:15;28.40;48.90
23114;DHT22;11726;50.122;8.832;2023-06-14T14:58:43;28.50;47.50
23114;DHT22;11726;50.122;8.832;2023-06-14T15:01:10;28.40;47.70
23114;DHT22;11726;50.122;8.832;2023-06-14T15:03:37;28.60;46.70
23114;DHT22;11726;50.122;8.832;2023-06-14T15:06:23;28.90;46.50
23114;DHT22;11726;50.122;8.832;2023-06-14T15:08:50;29.30;45.70
23114;DHT22;11726;50.122;8.832;2023-06-14T15:11:17;28.80;45.50
23114;DHT22;11726;50.122;8.832;2023-06-14T15:13:43;28.60;46.00
23114;DHT22;11726;50.122;8.832;2023-06-14T15:16:10;29.10;46.90
23114;DHT22;11726;50.122;8.832;2023-06-14T15:18:37;29.60;46.80
23114;DHT22;11726;50.122;8.832;2023-06-14T15:21:03;29.20;47.20
23114;DHT22;11726;50.122;8.832;2023-06-14T15:23:30;28.50;49.00
23114;DHT22;11726;50.122;8.832;2023-06-14T15:25:56;28.20;49.30
23114;DHT22;11726;50.122;8.832;2023-06-14T15:28:24;28.30;49.50
23114;DHT22;11726;50.122;8.832;2023-06-14T15:30:55;28.40;48.30
23114;DHT22;11726;50.122;8.832;2023-06-14T15:33:21;27.40;49.30
23114;DHT22;11726;50.122;8.832;2023-06-14T15:35:48;26.80;50.20
23114;DHT22;11726;50.122;8.832;2023-06-14T15:38:15;26.40;50.60
23114;DHT22;11726;50.122;8.832;2023-06-14T15:40:41;26.30;51.80
23114;DHT22;11726;50.122;8.832;2023-06-14T15:43:08;26.00;51.40
23114;DHT22;11726;50.122;8.832;2023-06-14T15:45:34;25.90;51.80
23114;DHT22;11726;50.122;8.832;2023-06-14T15:48:03;25.70;52.20
23114;DHT22;11726;50.122;8.832;2023-06-14T15:50:30;26.20;52.20